sensor_id;sensor_type;location;lat;lon;timestamp;pressure;altitude;pressure_sealevel;temperature;humidity
23616;BME280;11985;49.404;7.734;2023-06-05T00:01:52;97492.06;;;13.47;47.83
23616;BME280;11985;49.404;7.734;2023-06-05T00:06:55;97493.75;;;13.42;47.95
23616;BME280;11985;49.404;7.734;2023-06-05T00:11:57;97493.19;;;13.40;48.23
23616;BME280;11985;49.404;7.734;2023-06-05T00:16:59;97486.44;;;13.44;48.09
23616;BME280;11985;49.404;7.734;2023-06-05T00:22:02;97490.09;;;13.43;48.26
23616;BME280;11985;49.404;7.734;2023-06-05T00:27:04;97488.63;;;13.47;48.12
23616;BME280;11985;49.404;7.734;2023-06-05T00:32:06;97483.50;;;13.52;48.04
23616;BME280;11985;49.404;7.734;2023-06-05T00:37:09;97477.38;;;13.52;48.09
23616;BME280;11985;49.404;7.734;2023-06-05T00:42:11;97473.88;;;13.58;47.85
23616;BME280;11985;49.404;7.734;2023-06-05T00:47:13;97472.91;;;13.52;48.08
23616;BME280;11985;49.404;7.734;2023-06-05T00:52:16;97477.88;;;13.42;48.14
23616;BME280;11985;49.404;7.734;2023-06-05T00:57:18;97475.97;;;13.31;48.41
23616;BME280;11985;49.404;7.734;2023-06-05T01:02:20;97479.09;;;13.21;48.51
23616;BME280;11985;49.404;7.734;2023-06-05T01:07:23;97479.75;;;13.10;48.80
23616;BME280;11985;49.404;7.734;2023-06-05T01:12:27;97474.97;;;13.00;49.10
23616;BME280;11985;49.404;7.734;2023-06-05T01:17:32;97464.16;;;12.77;49.85
23616;BME280;11985;49.404;7.734;2023-06-05T01:22:35;97466.38;;;12.55;50.63
23616;BME280;11985;49.404;7.734;2023-06-05T01:27:43;97471.41;;;12.25;51.41
23616;BME280;11985;49.404;7.734;2023-06-05T01:32:53;97460.72;;;12.06;52.06
23616;BME280;11985;49.404;7.734;2023-06-05T01:37:58;97453.88;;;11.92;52.62
23616;BME280;11985;49.404;7.734;2023-06-05T01:43:02;97454.81;;;12.04;52.39
23616;BME280;11985;49.404;7.734;2023-06-05T01:48:06;97456.81;;;12.15;52.71
23616;BME280;11985;49.404;7.734;2023-06-05T01:53:09;97451.19;;;12.05;52.83
23616;BME280;11985;49.404;7.734;2023-06-05T01:58:12;97456.13;;;11.82;53.55
23616;BME280;11985;49.404;7.734;2023-06-05T02:03:14;97458.63;;;11.63;54.00
23616;BME280;11985;49.404;7.734;2023-06-05T02:08:17;97450.94;;;11.49;54.74
23616;BME280;11985;49.404;7.734;2023-06-05T02:13:21;97441.66;;;11.33;55.69
23616;BME280;11985;49.404;7.734;2023-06-05T02:18:23;97442.09;;;11.17;56.15
23616;BME280;11985;49.404;7.734;2023-06-05T02:23:25;97446.53;;;11.03;56.50
23616;BME280;11985;49.404;7.734;2023-06-05T02:28:28;97444.53;;;10.92;57.00
23616;BME280;11985;49.404;7.734;2023-06-05T02:33:30;97446.56;;;10.83;57.20
23616;BME280;11985;49.404;7.734;2023-06-05T02:38:31;97444.13;;;10.75;57.70
23616;BME280;11985;49.404;7.734;2023-06-05T02:43:35;97440.69;;;10.68;57.98
23616;BME280;11985;49.404;7.734;2023-06-05T02:48:37;97442.88;;;10.57;58.67
23616;BME280;11985;49.404;7.734;2023-06-05T02:53:38;97444.72;;;10.44;59.13
23616;BME280;11985;49.404;7.734;2023-06-05T02:58:43;97441.22;;;10.30;59.48
23616;BME280;11985;49.404;7.734;2023-06-05T03:03:45;97445.00;;;10.21;59.63
23616;BME280;11985;49.404;7.734;2023-06-05T03:08:48;97443.38;;;10.13;60.18
23616;BME280;11985;49.404;7.734;2023-06-05T03:13:51;97440.72;;;10.00;60.89
23616;BME280;11985;49.404;7.734;2023-06-05T03:18:53;97441.88;;;9.91;61.43
23616;BME280;11985;49.404;7.734;2023-06-05T03:23:55;97446.72;;;9.87;61.50
23616;BME280;11985;49.404;7.734;2023-06-05T03:28:58;97448.03;;;10.11;60.26
23616;BME280;11985;49.404;7.734;2023-06-05T03:34:00;97436.56;;;10.32;60.14
23616;BME280;11985;49.404;7.734;2023-06-05T03:39:03;97441.03;;;10.38;60.02
23616;BME280;11985;49.404;7.734;2023-06-05T03:44:06;97448.91;;;10.38;60.17
23616;BME280;11985;49.404;7.734;2023-06-05T03:49:09;97439.41;;;10.37;60.03
23616;BME280;11985;49.404;7.734;2023-06-05T03:54:11;97451.00;;;10.49;60.20
23616;BME280;11985;49.404;7.734;2023-06-05T03:59:14;97449.19;;;10.76;59.90
23616;BME280;11985;49.404;7.734;2023-06-05T04:04:20;97444.94;;;11.02;59.38
23616;BME280;11985;49.404;7.734;2023-06-05T04:09:22;97453.22;;;11.25;58.80
23616;BME280;11985;49.404;7.734;2023-06-05T04:14:25;97448.16;;;11.24;58.83
23616;BME280;11985;49.404;7.734;2023-06-05T04:19:27;97446.91;;;11.26;58.80
23616;BME280;11985;49.404;7.734;2023-06-05T04:24:28;97451.19;;;11.34;58.88
23616;BME280;11985;49.404;7.734;2023-06-05T04:29:32;97446.88;;;11.53;58.80
23616;BME280;11985;49.404;7.734;2023-06-05T04:34:34;97459.41;;;11.64;58.34
23616;BME280;11985;49.404;7.734;2023-06-05T04:39:35;97450.63;;;11.77;57.74
23616;BME280;11985;49.404;7.734;2023-06-05T04:44:38;97443.34;;;11.85;57.94
23616;BME280;11985;49.404;7.734;2023-06-05T04:49:40;97448.72;;;12.10;57.23
23616;BME280;11985;49.404;7.734;2023-06-05T04:54:42;97446.09;;;12.42;56.10
23616;BME280;11985;49.404;7.734;2023-06-05T04:59:45;97442.44;;;12.75;55.11
23616;BME280;11985;49.404;7.734;2023-06-05T05:04:47;97447.69;;;13.06;54.05
23616;BME280;11985;49.404;7.734;2023-06-05T05:09:49;97449.81;;;13.41;53.10
23616;BME280;11985;49.404;7.734;2023-06-05T05:14:52;97445.69;;;13.82;52.50
23616;BME280;11985;49.404;7.734;2023-06-05T05:19:53;97454.03;;;14.15;51.52
23616;BME280;11985;49.404;7.734;2023-06-05T05:24:55;97455.03;;;14.51;50.88
23616;BME280;11985;49.404;7.734;2023-06-05T05:29:58;97450.13;;;14.66;50.22
23616;BME280;11985;49.404;7.734;2023-06-05T05:34:59;97453.75;;;14.84;49.41
23616;BME280;11985;49.404;7.734;2023-06-05T05:40:01;97455.13;;;14.98;48.77
23616;BME280;11985;49.404;7.734;2023-06-05T05:45:06;97456.53;;;15.12;48.25
23616;BME280;11985;49.404;7.734;2023-06-05T05:50:09;97452.50;;;15.21;48.00
23616;BME280;11985;49.404;7.734;2023-06-05T05:55:11;97453.06;;;15.47;47.73
23616;BME280;11985;49.404;7.734;2023-06-05T06:00:15;97456.31;;;15.61;47.26
23616;BME280;11985;49.404;7.734;2023-06-05T06:05:16;97454.78;;;15.76;47.07
23616;BME280;11985;49.404;7.734;2023-06-05T06:10:18;97457.88;;;15.97;46.79
23616;BME280;11985;49.404;7.734;2023-06-05T06:15:22;97455.84;;;16.16;46.38
23616;BME280;11985;49.404;7.734;2023-06-05T06:20:25;97452.13;;;16.28;46.08
23616;BME280;11985;49.404;7.734;2023-06-05T06:25:28;97458.69;;;16.54;45.43
23616;BME280;11985;49.404;7.734;2023-06-05T06:30:33;97456.13;;;16.88;45.20
23616;BME280;11985;49.404;7.734;2023-06-05T06:35:35;97463.28;;;16.87;44.79
23616;BME280;11985;49.404;7.734;2023-06-05T06:40:36;97465.88;;;17.33;44.24
23616;BME280;11985;49.404;7.734;2023-06-05T06:45:39;97469.72;;;17.25;43.88
23616;BME280;11985;49.404;7.734;2023-06-05T06:50:41;97472.81;;;17.17;43.61
23616;BME280;11985;49.404;7.734;2023-06-05T06:55:44;97471.34;;;17.26;43.66
23616;BME280;11985;49.404;7.734;2023-06-05T07:00:47;97468.22;;;17.68;43.89
23616;BME280;11985;49.404;7.734;2023-06-05T07:05:49;97474.09;;;18.09;43.82
23616;BME280;11985;49.404;7.734;2023-06-05T07:10:52;97476.53;;;18.37;43.18
23616;BME280;11985;49.404;7.734;2023-06-05T07:15:56;97471.44;;;18.58;42.73
23616;BME280;11985;49.404;7.734;2023-06-05T07:20:58;97468.94;;;18.73;42.76
23616;BME280;11985;49.404;7.734;2023-06-05T07:25:59;97478.91;;;19.15;42.57
23616;BME280;11985;49.404;7.734;2023-06-05T07:31:03;97482.97;;;19.60;42.07
23616;BME280;11985;49.404;7.734;2023-06-05T07:36:04;97479.69;;;19.52;41.56
23616;BME280;11985;49.404;7.734;2023-06-05T07:41:08;97476.63;;;19.66;41.43
23616;BME280;11985;49.404;7.734;2023-06-05T07:46:11;97475.25;;;20.16;41.09
23616;BME280;11985;49.404;7.734;2023-06-05T07:51:14;97464.88;;;20.40;40.75
23616;BME280;11985;49.404;7.734;2023-06-05T07:56:18;97472.19;;;20.65;40.19
23616;BME280;11985;49.404;7.734;2023-06-05T08:01:21;97469.78;;;20.63;39.69
23616;BME280;11985;49.404;7.734;2023-06-05T08:06:23;97473.31;;;20.99;39.05
23616;BME280;11985;49.404;7.734;2023-06-05T08:11:25;97470.13;;;21.38;38.99
23616;BME280;11985;49.404;7.734;2023-06-05T08:16:29;97467.38;;;21.64;38.63
23616;BME280;11985;49.404;7.734;2023-06-05T08:21:31;97465.75;;;21.78;37.84
23616;BME280;11985;49.404;7.734;2023-06-05T08:26:33;97458.97;;;21.91;37.58
23616;BME280;11985;49.404;7.734;2023-06-05T08:31:36;97461.34;;;22.07;37.85
23616;BME280;11985;49.404;7.734;2023-06-05T08:36:38;97461.88;;;22.14;37.18
23616;BME280;11985;49.404;7.734;2023-06-05T08:41:40;97460.56;;;22.02;37.62
23616;BME280;11985;49.404;7.734;2023-06-05T08:46:45;97460.28;;;22.03;37.58
23616;BME280;11985;49.404;7.734;2023-06-05T08:51:49;97458.13;;;22.16;37.82
23616;BME280;11985;49.404;7.734;2023-06-05T08:56:53;97459.16;;;22.20;37.18
23616;BME280;11985;49.404;7.734;2023-06-05T09:01:56;97458.69;;;22.57;37.08
23616;BME280;11985;49.404;7.734;2023-06-05T09:06:58;97450.47;;;22.82;36.80
23616;BME280;11985;49.404;7.734;2023-06-05T09:12:03;97453.59;;;22.60;37.02
23616;BME280;11985;49.404;7.734;2023-06-05T09:17:12;97445.53;;;23.00;36.86
23616;BME280;11985;49.404;7.734;2023-06-05T09:22:14;97443.91;;;23.33;36.44
23616;BME280;11985;49.404;7.734;2023-06-05T09:27:16;97436.34;;;23.35;35.75
23616;BME280;11985;49.404;7.734;2023-06-05T09:32:21;97437.47;;;23.29;35.56
23616;BME280;11985;49.404;7.734;2023-06-05T09:37:32;97432.63;;;23.31;35.80
23616;BME280;11985;49.404;7.734;2023-06-05T09:42:35;97437.81;;;23.51;35.63
23616;BME280;11985;49.404;7.734;2023-06-05T09:47:38;97440.38;;;23.61;35.40
23616;BME280;11985;49.404;7.734;2023-06-05T09:52:40;97426.06;;;23.42;35.57
23616;BME280;11985;49.404;7.734;2023-06-05T09:57:42;97431.88;;;24.02;35.57
23616;BME280;11985;49.404;7.734;2023-06-05T10:02:47;97431.13;;;23.96;35.15
23616;BME280;11985;49.404;7.734;2023-06-05T10:07:49;97431.59;;;23.80;34.65
23616;BME280;11985;49.404;7.734;2023-06-05T10:12:54;97433.38;;;23.65;34.80
23616;BME280;11985;49.404;7.734;2023-06-05T10:17:58;97423.47;;;23.85;35.02
23616;BME280;11985;49.404;7.734;2023-06-05T10:23:01;97428.94;;;24.41;34.74
23616;BME280;11985;49.404;7.734;2023-06-05T10:28:20;97418.91;;;24.47;34.69
23616;BME280;11985;49.404;7.734;2023-06-05T10:33:40;97422.19;;;24.63;33.93
23616;BME280;11985;49.404;7.734;2023-06-05T10:38:45;97414.66;;;24.79;33.78
23616;BME280;11985;49.404;7.734;2023-06-05T10:43:48;97415.34;;;25.03;33.61
23616;BME280;11985;49.404;7.734;2023-06-05T10:49:10;97415.50;;;24.93;32.91
23616;BME280;11985;49.404;7.734;2023-06-05T10:54:14;97415.19;;;25.13;33.11
23616;BME280;11985;49.404;7.734;2023-06-05T10:59:17;97403.75;;;25.21;32.26
23616;BME280;11985;49.404;7.734;2023-06-05T11:04:22;97399.16;;;25.22;32.39
23616;BME280;11985;49.404;7.734;2023-06-05T11:09:24;97402.97;;;25.02;32.27
23616;BME280;11985;49.404;7.734;2023-06-05T11:14:44;97396.63;;;24.79;32.08
23616;BME280;11985;49.404;7.734;2023-06-05T11:19:47;97407.13;;;25.13;32.10
23616;BME280;11985;49.404;7.734;2023-06-05T11:30:23;97396.28;;;25.32;31.26
23616;BME280;11985;49.404;7.734;2023-06-05T11:35:28;97396.78;;;25.34;31.17
23616;BME280;11985;49.404;7.734;2023-06-05T11:40:30;97389.69;;;25.52;30.64
23616;BME280;11985;49.404;7.734;2023-06-05T11:45:32;97377.50;;;25.41;30.41
23616;BME280;11985;49.404;7.734;2023-06-05T11:50:36;97385.03;;;25.85;30.91
23616;BME280;11985;49.404;7.734;2023-06-05T11:55:38;97388.56;;;26.08;30.68
23616;BME280;11985;49.404;7.734;2023-06-05T12:01:07;97378.34;;;25.83;29.85
23616;BME280;11985;49.404;7.734;2023-06-05T12:06:11;97387.47;;;25.54;30.18
23616;BME280;11985;49.404;7.734;2023-06-05T12:11:20;97386.91;;;25.43;30.03
23616;BME280;11985;49.404;7.734;2023-06-05T12:16:30;97375.28;;;25.43;30.57
23616;BME280;11985;49.404;7.734;2023-06-05T12:21:34;97378.72;;;25.90;30.67
23616;BME280;11985;49.404;7.734;2023-06-05T12:26:52;97377.50;;;25.96;30.14
23616;BME280;11985;49.404;7.734;2023-06-05T12:31:55;97379.88;;;26.11;30.13
23616;BME280;11985;49.404;7.734;2023-06-05T12:36:58;97373.91;;;25.87;29.92
23616;BME280;11985;49.404;7.734;2023-06-05T12:42:00;97356.75;;;25.83;29.90
23616;BME280;11985;49.404;7.734;2023-06-05T12:47:01;97357.88;;;26.04;29.90
23616;BME280;11985;49.404;7.734;2023-06-05T12:52:06;97352.94;;;25.84;29.66
23616;BME280;11985;49.404;7.734;2023-06-05T12:57:08;97339.66;;;26.23;29.85
23616;BME280;11985;49.404;7.734;2023-06-05T13:02:10;97345.34;;;26.58;28.92
23616;BME280;11985;49.404;7.734;2023-06-05T13:07:13;97339.53;;;26.96;28.71
23616;BME280;11985;49.404;7.734;2023-06-05T13:12:17;97340.56;;;26.55;28.10
23616;BME280;11985;49.404;7.734;2023-06-05T13:17:18;97344.66;;;26.52;28.19
23616;BME280;11985;49.404;7.734;2023-06-05T13:22:21;97334.78;;;26.48;28.37
23616;BME280;11985;49.404;7.734;2023-06-05T13:27:23;97322.72;;;26.31;28.07
23616;BME280;11985;49.404;7.734;2023-06-05T13:32:24;97329.13;;;26.58;27.69
23616;BME280;11985;49.404;7.734;2023-06-05T13:37:27;97314.44;;;27.04;27.61
23616;BME280;11985;49.404;7.734;2023-06-05T13:42:29;97314.78;;;27.42;26.90
23616;BME280;11985;49.404;7.734;2023-06-05T13:47:30;97310.09;;;27.17;26.68
23616;BME280;11985;49.404;7.734;2023-06-05T13:52:33;97310.84;;;26.77;26.97
23616;BME280;11985;49.404;7.734;2023-06-05T13:57:35;97313.41;;;26.15;26.35
23616;BME280;11985;49.404;7.734;2023-06-05T14:02:37;97309.41;;;25.76;26.74
23616;BME280;11985;49.404;7.734;2023-06-05T14:07:40;97310.47;;;26.70;27.09
23616;BME280;11985;49.404;7.734;2023-06-05T14:12:41;97302.38;;;27.01;26.59
23616;BME280;11985;49.404;7.734;2023-06-05T14:17:43;97296.47;;;27.30;26.73
23616;BME280;11985;49.404;7.734;2023-06-05T14:22:47;97290.19;;;26.81;26.31
23616;BME280;11985;49.404;7.734;2023-06-05T14:27:49;97302.22;;;26.44;26.41
23616;BME280;11985;49.404;7.734;2023-06-05T14:32:52;97285.13;;;26.57;26.38
23616;BME280;11985;49.404;7.734;2023-06-05T14:37:55;97283.78;;;26.46;26.81
23616;BME280;11985;49.404;7.734;2023-06-05T14:42:57;97279.34;;;26.73;26.47
23616;BME280;11985;49.404;7.734;2023-06-05T14:47:58;97292.53;;;26.43;26.39
23616;BME280;11985;49.404;7.734;2023-06-05T14:53:01;97300.13;;;26.05;26.25
23616;BME280;11985;49.404;7.734;2023-06-05T14:58:03;97295.78;;;26.40;26.34
23616;BME280;11985;49.404;7.734;2023-06-05T15:03:06;97289.13;;;26.60;26.13
23616;BME280;11985;49.404;7.734;2023-06-05T15:08:08;97275.66;;;27.00;26.17
23616;BME280;11985;49.404;7.734;2023-06-05T15:13:11;97282.13;;;27.21;26.37
23616;BME280;11985;49.404;7.734;2023-06-05T15:18:13;97278.31;;;26.38;25.74
23616;BME280;11985;49.404;7.734;2023-06-05T15:23:16;97269.78;;;26.67;26.95
23616;BME280;11985;49.404;7.734;2023-06-05T15:28:17;97276.38;;;27.14;26.90
23616;BME280;11985;49.404;7.734;2023-06-05T15:33:19;97271.50;;;26.63;25.92
23616;BME280;11985;49.404;7.734;2023-06-05T15:38:22;97280.47;;;26.49;26.34
23616;BME280;11985;49.404;7.734;2023-06-05T15:43:23;97266.63;;;26.73;25.87
23616;BME280;11985;49.404;7.734;2023-06-05T15:48:25;97268.72;;;27.07;25.84
23616;BME280;11985;49.404;7.734;2023-06-05T15:53:28;97256.88;;;26.64;25.66
23616;BME280;11985;49.404;7.734;2023-06-05T15:58:30;97259.91;;;26.62;25.66
23616;BME280;11985;49.404;7.734;2023-06-05T16:03:31;97259.66;;;26.50;25.67
23616;BME280;11985;49.404;7.734;2023-06-05T16:08:37;97259.78;;;26.76;25.95
23616;BME280;11985;49.404;7.734;2023-06-05T16:13:40;97254.50;;;26.40;25.63
23616;BME280;11985;49.404;7.734;2023-06-05T16:18:41;97252.03;;;26.29;25.90
23616;BME280;11985;49.404;7.734;2023-06-05T16:23:44;97257.00;;;26.36;25.70
23616;BME280;11985;49.404;7.734;2023-06-05T16:28:46;97243.25;;;26.24;25.75
23616;BME280;11985;49.404;7.734;2023-06-05T16:33:47;97258.78;;;26.18;25.88
23616;BME280;11985;49.404;7.734;2023-06-05T16:38:50;97246.25;;;25.77;26.04
23616;BME280;11985;49.404;7.734;2023-06-05T16:43:52;97250.69;;;25.46;26.47
23616;BME280;11985;49.404;7.734;2023-06-05T16:48:53;97244.34;;;25.64;26.69
23616;BME280;11985;49.404;7.734;2023-06-05T16:53:56;97240.31;;;25.89;26.80
23616;BME280;11985;49.404;7.734;2023-06-05T16:58:59;97244.25;;;25.83;26.75
23616;BME280;11985;49.404;7.734;2023-06-05T17:04:01;97249.13;;;25.67;26.75
23616;BME280;11985;49.404;7.734;2023-06-05T17:09:05;97251.34;;;26.01;27.13
23616;BME280;11985;49.404;7.734;2023-06-05T17:14:06;97242.03;;;25.85;27.22
23616;BME280;11985;49.404;7.734;2023-06-05T17:19:08;97242.69;;;25.41;27.63
23616;BME280;11985;49.404;7.734;2023-06-05T17:24:12;97255.69;;;25.11;28.02
23616;BME280;11985;49.404;7.734;2023-06-05T17:29:14;97250.56;;;24.96;28.16
23616;BME280;11985;49.404;7.734;2023-06-05T17:34:15;97248.06;;;24.72;28.42
23616;BME280;11985;49.404;7.734;2023-06-05T17:39:18;97250.97;;;24.43;28.99
23616;BME280;11985;49.404;7.734;2023-06-05T17:44:20;97253.81;;;24.00;29.25
23616;BME280;11985;49.404;7.734;2023-06-05T17:49:22;97250.91;;;23.78;29.51
23616;BME280;11985;49.404;7.734;2023-06-05T17:54:25;97252.31;;;23.51;30.00
23616;BME280;11985;49.404;7.734;2023-06-05T17:59:26;97256.34;;;23.30;30.44
23616;BME280;11985;49.404;7.734;2023-06-05T18:04:28;97254.97;;;23.08;30.59
23616;BME280;11985;49.404;7.734;2023-06-05T18:09:31;97261.06;;;22.95;30.91
23616;BME280;11985;49.404;7.734;2023-06-05T18:14:33;97254.50;;;22.77;31.05
23616;BME280;11985;49.404;7.734;2023-06-05T18:19:34;97255.75;;;22.61;31.60
23616;BME280;11985;49.404;7.734;2023-06-05T18:24:37;97258.31;;;22.42;31.63
23616;BME280;11985;49.404;7.734;2023-06-05T18:29:40;97263.28;;;22.25;31.42
23616;BME280;11985;49.404;7.734;2023-06-05T18:34:41;97254.31;;;22.05;32.20
23616;BME280;11985;49.404;7.734;2023-06-05T18:39:44;97258.19;;;21.84;32.90
23616;BME280;11985;49.404;7.734;2023-06-05T18:44:46;97270.09;;;21.68;32.69
23616;BME280;11985;49.404;7.734;2023-06-05T18:49:48;97263.50;;;21.50;32.95
23616;BME280;11985;49.404;7.734;2023-06-05T18:54:51;97259.28;;;21.33;32.78
23616;BME280;11985;49.404;7.734;2023-06-05T18:59:52;97259.00;;;21.30;33.33
23616;BME280;11985;49.404;7.734;2023-06-05T19:04:54;97264.94;;;21.17;33.64
23616;BME280;11985;49.404;7.734;2023-06-05T19:09:57;97264.50;;;20.89;34.51
23616;BME280;11985;49.404;7.734;2023-06-05T19:15:00;97267.22;;;20.48;35.29
23616;BME280;11985;49.404;7.734;2023-06-05T19:20:05;97267.72;;;20.10;36.33
23616;BME280;11985;49.404;7.734;2023-06-05T19:25:08;97268.75;;;19.73;37.42
23616;BME280;11985;49.404;7.734;2023-06-05T19:30:11;97270.25;;;19.43;38.41
23616;BME280;11985;49.404;7.734;2023-06-05T19:35:12;97276.78;;;19.10;39.09
23616;BME280;11985;49.404;7.734;2023-06-05T19:40:15;97279.03;;;18.81;39.76
23616;BME280;11985;49.404;7.734;2023-06-05T19:45:17;97286.06;;;18.60;40.35
23616;BME280;11985;49.404;7.734;2023-06-05T19:50:19;97292.53;;;18.37;40.71
23616;BME280;11985;49.404;7.734;2023-06-05T19:55:22;97291.84;;;18.15;41.43
23616;BME280;11985;49.404;7.734;2023-06-05T20:00:24;97307.06;;;17.92;41.99
23616;BME280;11985;49.404;7.734;2023-06-05T20:05:25;97307.50;;;17.79;42.55
23616;BME280;11985;49.404;7.734;2023-06-05T20:10:28;97311.56;;;17.65;42.66
23616;BME280;11985;49.404;7.734;2023-06-05T20:15:30;97311.94;;;17.52;43.31
23616;BME280;11985;49.404;7.734;2023-06-05T20:20:31;97317.94;;;17.64;42.64
23616;BME280;11985;49.404;7.734;2023-06-05T20:25:35;97322.94;;;17.77;42.54
23616;BME280;11985;49.404;7.734;2023-06-05T20:30:36;97328.44;;;17.98;42.12
23616;BME280;11985;49.404;7.734;2023-06-05T20:35:38;97334.03;;;17.96;42.17
23616;BME280;11985;49.404;7.734;2023-06-05T20:40:42;97335.78;;;17.85;42.58
23616;BME280;11985;49.404;7.734;2023-06-05T20:45:44;97330.72;;;17.62;42.75
23616;BME280;11985;49.404;7.734;2023-06-05T20:50:48;97334.38;;;17.34;43.51
23616;BME280;11985;49.404;7.734;2023-06-05T20:55:51;97337.47;;;17.09;44.18
23616;BME280;11985;49.404;7.734;2023-06-05T21:00:53;97341.88;;;16.81;44.65
23616;BME280;11985;49.404;7.734;2023-06-05T21:05:54;97334.28;;;16.56;45.12
23616;BME280;11985;49.404;7.734;2023-06-05T21:10:57;97342.19;;;16.34;45.88
23616;BME280;11985;49.404;7.734;2023-06-05T21:15:59;97330.47;;;16.19;46.13
23616;BME280;11985;49.404;7.734;2023-06-05T21:21:00;97331.00;;;16.04;46.66
23616;BME280;11985;49.404;7.734;2023-06-05T21:26:03;97332.28;;;15.84;47.20
23616;BME280;11985;49.404;7.734;2023-06-05T21:31:05;97331.72;;;15.71;47.69
23616;BME280;11985;49.404;7.734;2023-06-05T21:36:07;97326.31;;;15.54;48.28
23616;BME280;11985;49.404;7.734;2023-06-05T21:41:10;97323.94;;;15.41;48.62
23616;BME280;11985;49.404;7.734;2023-06-05T21:46:11;97322.59;;;15.26;49.22
23616;BME280;11985;49.404;7.734;2023-06-05T21:51:13;97325.84;;;15.17;49.56
23616;BME280;11985;49.404;7.734;2023-06-05T21:56:16;97319.53;;;15.06;49.83
23616;BME280;11985;49.404;7.734;2023-06-05T22:01:18;97327.00;;;14.97;50.00
23616;BME280;11985;49.404;7.734;2023-06-05T22:06:20;97326.78;;;14.87;50.62
23616;BME280;11985;49.404;7.734;2023-06-05T22:11:27;97326.34;;;14.78;50.82
23616;BME280;11985;49.404;7.734;2023-06-05T22:16:29;97323.00;;;14.71;51.24
23616;BME280;11985;49.404;7.734;2023-06-05T22:21:38;97319.88;;;14.63;51.57
23616;BME280;11985;49.404;7.734;2023-06-05T22:26:41;97325.06;;;14.58;51.85
23616;BME280;11985;49.404;7.734;2023-06-05T22:31:44;97327.22;;;14.49;52.05
23616;BME280;11985;49.404;7.734;2023-06-05T22:36:45;97326.19;;;14.38;52.42
23616;BME280;11985;49.404;7.734;2023-06-05T22:41:48;97326.97;;;14.27;52.93
23616;BME280;11985;49.404;7.734;2023-06-05T22:46:50;97331.88;;;14.12;53.26
23616;BME280;11985;49.404;7.734;2023-06-05T22:51:53;97323.56;;;14.08;53.38
23616;BME280;11985;49.404;7.734;2023-06-05T22:56:56;97331.63;;;14.13;53.02
23616;BME280;11985;49.404;7.734;2023-06-05T23:01:59;97327.50;;;14.17;53.45
23616;BME280;11985;49.404;7.734;2023-06-05T23:07:00;97323.94;;;14.23;53.46
23616;BME280;11985;49.404;7.734;2023-06-05T23:12:05;97327.41;;;14.36;53.16
23616;BME280;11985;49.404;7.734;2023-06-05T23:17:07;97328.72;;;14.45;53.16
23616;BME280;11985;49.404;7.734;2023-06-05T23:22:08;97326.28;;;14.43;52.91
23616;BME280;11985;49.404;7.734;2023-06-05T23:27:11;97324.25;;;14.57;52.77
23616;BME280;11985;49.404;7.734;2023-06-05T23:32:13;97325.31;;;14.79;52.14
23616;BME280;11985;49.404;7.734;2023-06-05T23:37:15;97327.13;;;14.91;51.82
23616;BME280;11985;49.404;7.734;2023-06-05T23:42:17;97323.56;;;14.85;52.14
23616;BME280;11985;49.404;7.734;2023-06-05T23:47:23;97331.97;;;14.70;52.28
23616;BME280;11985;49.404;7.734;2023-06-05T23:52:25;97337.50;;;14.57;52.61
23616;BME280;11985;49.404;7.734;2023-06-05T23:57:29;97329.50;;;14.45;53.21
